createdAt,value
2023-04-07T00:00:48.260Z,7.00
2023-04-07T00:03:15.958Z,7.10
2023-04-07T00:05:49.368Z,7.20
2023-04-07T00:13:21.295Z,7.00
2023-04-07T00:15:48.754Z,7.00
2023-04-07T00:18:21.021Z,7.00
2023-04-07T00:20:48.224Z,6.80
2023-04-07T00:23:15.833Z,6.60
2023-04-07T00:25:43.180Z,6.60
2023-04-07T00:28:10.528Z,6.70
2023-04-07T00:30:38.920Z,6.70
2023-04-07T00:39:48.531Z,6.90
2023-04-07T00:42:16.624Z,7.00
2023-04-07T00:44:44.903Z,7.10
2023-04-07T00:47:18.078Z,7.00
2023-04-07T00:50:00.519Z,7.00
2023-04-07T00:52:35.573Z,6.90
2023-04-07T00:55:04.054Z,6.70
2023-04-07T01:02:52.441Z,6.80
2023-04-07T01:05:26.050Z,6.70
2023-04-07T01:08:15.376Z,6.90
2023-04-07T01:10:49.266Z,7.00
2023-04-07T01:13:24.135Z,6.90
2023-04-07T01:15:55.728Z,6.90
2023-04-07T01:25:39.077Z,7.10
2023-04-07T01:28:19.571Z,7.20
2023-04-07T01:30:49.888Z,7.20
2023-04-07T01:33:18.741Z,7.30
2023-04-07T01:35:52.517Z,7.20
2023-04-07T01:38:23.633Z,7.20
2023-04-07T01:46:14.650Z,6.90
2023-04-07T01:48:43.005Z,7.20
2023-04-07T01:51:16.879Z,7.30
2023-04-07T01:53:47.826Z,7.30
2023-04-07T01:56:16.180Z,7.30
2023-04-07T01:58:49.918Z,7.20
2023-04-07T02:01:19.204Z,7.20
2023-04-07T02:08:51.058Z,7.00
2023-04-07T02:11:21.148Z,7.20
2023-04-07T02:13:51.605Z,7.20
2023-04-07T02:16:20.762Z,7.30
2023-04-07T02:18:49.176Z,7.20
2023-04-07T02:21:17.968Z,7.20
2023-04-07T02:23:49.274Z,7.10
2023-04-07T02:32:07.848Z,7.10
2023-04-07T02:34:35.659Z,7.10
2023-04-07T02:37:03.277Z,7.20
2023-04-07T02:39:31.155Z,7.20
2023-04-07T02:42:04.070Z,7.30
2023-04-07T02:44:31.295Z,7.20
2023-04-07T02:47:04.041Z,7.30
2023-04-07T02:55:05.713Z,7.20
2023-04-07T02:57:33.056Z,7.20
2023-04-07T03:00:05.398Z,7.10
2023-04-07T03:02:32.998Z,7.20
2023-04-07T03:05:00.520Z,7.20
2023-04-07T03:07:31.543Z,7.20
2023-04-07T03:09:58.504Z,7.10
2023-04-07T03:17:26.098Z,7.20
2023-04-07T03:19:55.852Z,7.10
2023-04-07T03:22:23.288Z,7.20
2023-04-07T03:24:50.204Z,7.20
2023-04-07T03:27:21.375Z,7.10
2023-04-07T03:29:50.722Z,7.20
2023-04-07T03:32:25.767Z,7.20
2023-04-07T03:40:05.992Z,7.20
2023-04-07T03:42:32.877Z,7.20
2023-04-07T03:45:00.805Z,7.30
2023-04-07T03:47:28.571Z,7.30
2023-04-07T03:49:56.247Z,7.30
2023-04-07T03:52:23.568Z,7.20
2023-04-07T03:54:51.203Z,7.20
2023-04-07T04:05:24.418Z,7.30
2023-04-07T04:07:52.433Z,7.20
2023-04-07T04:10:22.388Z,7.20
2023-04-07T04:12:50.006Z,7.20
2023-04-07T04:15:23.675Z,7.20
2023-04-07T04:17:52.870Z,7.20
2023-04-07T04:20:21.695Z,7.20
2023-04-07T04:22:52.150Z,7.10
2023-04-07T04:30:03.027Z,7.20
2023-04-07T04:32:30.927Z,7.20
2023-04-07T04:35:04.538Z,7.30
2023-04-07T04:37:31.959Z,7.20
2023-04-07T04:39:59.429Z,7.10
2023-04-07T04:42:27.596Z,7.20
2023-04-07T04:44:55.852Z,7.20
2023-04-07T04:50:27.987Z,7.20
2023-04-07T04:52:58.388Z,7.10
2023-04-07T04:55:25.781Z,7.10
2023-04-07T04:57:53.192Z,7.20
2023-04-07T05:00:21.633Z,7.30
2023-04-07T05:02:49.286Z,7.30
2023-04-07T05:05:17.196Z,7.20
2023-04-07T05:12:40.098Z,7.30
2023-04-07T05:15:08.457Z,7.30
2023-04-07T05:17:36.577Z,7.20
2023-04-07T05:20:06.239Z,7.20
2023-04-07T05:22:33.550Z,7.30
2023-04-07T05:25:00.998Z,7.30
2023-04-07T05:27:28.261Z,7.10
2023-04-07T05:35:01.743Z,7.10
2023-04-07T05:37:29.106Z,7.10
2023-04-07T05:39:56.447Z,7.00
2023-04-07T05:42:23.719Z,7.10
2023-04-07T05:44:51.335Z,7.10
2023-04-07T05:47:18.564Z,7.00
2023-04-07T05:49:47.400Z,7.00
2023-04-07T05:52:16.206Z,7.10
2023-04-07T05:59:47.912Z,7.20
2023-04-07T06:02:16.465Z,7.00
2023-04-07T06:04:47.395Z,7.10
2023-04-07T06:07:14.854Z,7.20
2023-04-07T06:09:42.814Z,7.20
2023-04-07T06:12:11.705Z,7.20
2023-04-07T06:14:39.237Z,6.90
2023-04-07T06:25:06.530Z,7.00
2023-04-07T06:27:34.432Z,7.00
2023-04-07T06:30:01.776Z,7.00
2023-04-07T06:32:29.303Z,7.10
2023-04-07T06:34:56.728Z,7.20
2023-04-07T06:37:25.616Z,7.30
2023-04-07T06:39:53.153Z,7.30
2023-04-07T06:45:00.901Z,7.40
2023-04-07T06:47:28.868Z,7.30
2023-04-07T06:50:01.231Z,7.40
2023-04-07T06:52:28.560Z,7.30
2023-04-07T06:54:56.578Z,7.30
2023-04-07T06:57:27.168Z,7.30
2023-04-07T06:59:54.485Z,7.30
2023-04-07T07:07:31.594Z,7.20
2023-04-07T07:09:58.881Z,7.30
2023-04-07T07:12:26.123Z,7.50
2023-04-07T07:14:53.356Z,7.60
2023-04-07T07:17:20.759Z,7.70
2023-04-07T07:19:50.011Z,7.70
2023-04-07T07:22:20.487Z,7.70
2023-04-07T07:29:53.450Z,7.50
2023-04-07T07:32:20.895Z,7.60
2023-04-07T07:34:49.387Z,7.70
2023-04-07T07:37:16.960Z,7.60
2023-04-07T07:39:44.093Z,7.60
2023-04-07T07:42:11.379Z,7.50
2023-04-07T07:44:39.609Z,7.50
2023-04-07T07:49:44.614Z,7.50
2023-04-07T07:52:12.233Z,7.60
2023-04-07T07:54:39.595Z,7.60
2023-04-07T07:57:07.041Z,7.60
2023-04-07T07:59:35.084Z,7.40
2023-04-07T08:02:02.996Z,7.60
2023-04-07T08:04:30.890Z,7.70
2023-04-07T08:07:00.500Z,7.80
2023-04-07T08:14:32.935Z,7.80
2023-04-07T08:17:06.244Z,7.70
2023-04-07T08:19:33.889Z,7.60
2023-04-07T08:22:01.774Z,7.50
2023-04-07T08:24:29.819Z,7.40
2023-04-07T08:26:59.836Z,7.50
2023-04-07T08:29:31.185Z,7.70
2023-04-07T08:37:04.347Z,7.90
2023-04-07T08:39:35.136Z,8.10
2023-04-07T08:42:06.513Z,8.00
2023-04-07T08:44:36.197Z,7.90
2023-04-07T08:47:07.495Z,8.00
2023-04-07T08:49:41.233Z,8.10
2023-04-07T08:52:17.076Z,8.00
2023-04-07T08:54:45.167Z,8.10
2023-04-07T09:02:22.473Z,8.20
2023-04-07T09:04:50.326Z,8.30
2023-04-07T09:07:20.344Z,8.30
2023-04-07T09:09:48.253Z,8.50
2023-04-07T09:12:17.653Z,8.50
2023-04-07T09:14:47.331Z,8.50
2023-04-07T09:17:16.398Z,8.50
2023-04-07T09:27:17.737Z,8.50
2023-04-07T09:29:50.632Z,8.40
2023-04-07T09:32:39.082Z,8.50
2023-04-07T09:35:07.213Z,8.50
2023-04-07T09:37:36.208Z,8.60
2023-04-07T09:40:07.182Z,8.50
2023-04-07T09:42:37.602Z,8.50
2023-04-07T09:50:10.736Z,8.60
2023-04-07T09:52:52.806Z,8.90
2023-04-07T09:55:23.775Z,8.90
2023-04-07T09:57:56.057Z,8.90
2023-04-07T10:00:26.783Z,8.90
2023-04-07T10:02:55.034Z,8.90
2023-04-07T10:05:24.263Z,8.90
2023-04-07T10:12:58.535Z,8.90
2023-04-07T10:15:30.383Z,9.00
2023-04-07T10:18:02.722Z,9.20
2023-04-07T10:20:34.094Z,9.20
2023-04-07T10:23:11.954Z,9.20
2023-04-07T10:25:43.694Z,9.20
2023-04-07T10:28:20.937Z,9.20
2023-04-07T10:37:43.003Z,9.00
2023-04-07T10:40:34.718Z,9.00
2023-04-07T10:43:07.688Z,9.00
2023-04-07T10:46:01.784Z,9.00
2023-04-07T10:48:33.776Z,9.20
2023-04-07T10:51:19.604Z,9.30
2023-04-07T11:02:41.023Z,9.40
2023-04-07T11:05:23.457Z,9.60
2023-04-07T11:08:09.588Z,9.50
2023-04-07T11:10:50.239Z,9.50
2023-04-07T11:13:20.710Z,9.70
2023-04-07T11:15:51.919Z,9.80
2023-04-07T11:18:26.080Z,9.60
2023-04-07T11:26:18.819Z,9.60
2023-04-07T11:28:52.481Z,9.70
2023-04-07T11:31:28.589Z,9.70
2023-04-07T11:34:04.818Z,9.80
2023-04-07T11:36:39.735Z,9.80
2023-04-07T11:39:28.096Z,9.90
2023-04-07T11:42:01.663Z,9.80
2023-04-07T11:49:48.866Z,10.00
2023-04-07T11:52:19.557Z,9.90
2023-04-07T11:54:52.436Z,9.90
2023-04-07T11:57:30.597Z,9.90
2023-04-07T12:00:10.762Z,10.00
2023-04-07T12:02:45.231Z,10.00
